»·PEaware :: N149CD KTRM-KCRQ

N149CD :: KTRM-KCRQ

FLIGHT INFORMATION

Flight Status: Arrived
Operator: Privately registered:
United States
More flights under this callsign
Pilot: Nathan E. (30132)
Aircraft: CESSNA 172 SKYHAWK
(C172)
More flights by this aircraft type
Origin: KTRM Desert Resorts Regl
United States
Destination: KCRQ McClellan-Palomar
United States
More flights between these airports :: More routes between these airports
Route: +TRM V208 OCN
File this flight plan on PilotEdge
Remarks:
Altitude:
(Current/Filed)
10,000ft
Speed:
(Current/Filed)
110kts
Departed: 22-Oct-20 09:33 AM
Arrived: 22-Oct-20 10:26 AM
Distance/Time
Traveled:
63nm/0:53
Distance/Time
To Go:
Arrived

Flight Plot

Page will automatically refresh every two minutes.

Flight plan parsing failed; only flown route is shown


Map Options




Map Legend


Flown Route
Filed Route
Departure Airport
Arrival Airport
Navaid (VOR, NDB)
Fix

Horizontal Profiles

Position Reports

Time Latitude Longitude Heading Altitude Ground
Speed
22-Oct-20 09:08 33.634723 -116.162130 90 -107ft 0kts
22-Oct-20 09:09 33.634723 -116.162130 90 -107ft 0kts
22-Oct-20 09:10 33.634723 -116.162130 90 -107ft 0kts
22-Oct-20 09:11 33.634723 -116.162130 90 -107ft 0kts
22-Oct-20 09:12 33.634723 -116.162130 90 -107ft 0kts
22-Oct-20 09:13 33.634723 -116.162130 90 -107ft 0kts
22-Oct-20 09:14 33.634723 -116.162130 90 -107ft 0kts
22-Oct-20 09:15 33.634723 -116.162130 90 -107ft 0kts
22-Oct-20 09:16 33.634723 -116.162130 90 -107ft 0kts
22-Oct-20 09:17 33.634723 -116.162130 90 -107ft 0kts
22-Oct-20 09:18 33.634723 -116.162130 90 -107ft 0kts
22-Oct-20 09:19 33.634723 -116.162130 90 -107ft 0kts
22-Oct-20 09:20 33.634723 -116.162130 90 -107ft 0kts
22-Oct-20 09:21 33.634723 -116.162130 90 -107ft 0kts
22-Oct-20 09:22 33.634723 -116.162130 90 -107ft 0kts
22-Oct-20 09:23 33.634723 -116.162130 90 -107ft 0kts
22-Oct-20 09:24 33.634133 -116.161403 89 -109ft 10kts
22-Oct-20 09:25 33.633736 -116.157719 180 -110ft 13kts
22-Oct-20 09:26 33.628845 -116.157724 180 -113ft 16kts
22-Oct-20 09:27 33.623027 -116.157726 180 -117ft 21kts
22-Oct-20 09:28 33.617425 -116.157728 179 -120ft 20kts
22-Oct-20 09:29 33.616033 -116.157983 82 -120ft 0kts
22-Oct-20 09:30 33.616033 -116.157983 82 -120ft 0kts
22-Oct-20 09:31 33.615988 -116.157737 123 -120ft 11kts
22-Oct-20 09:32 33.622770 -116.156433 359 -30ft 76kts
22-Oct-20 09:33 33.642606 -116.154639 35 1028ft 73kts
22-Oct-20 09:34 33.633282 -116.140513 202 2019ft 82kts
22-Oct-20 09:35 33.612203 -116.150625 178 2970ft 84kts
22-Oct-20 09:36 33.592195 -116.136361 147 3864ft 85kts
22-Oct-20 09:37 33.572098 -116.121062 148 4714ft 86kts
22-Oct-20 09:38 33.551714 -116.105658 148 5517ft 87kts
22-Oct-20 09:39 33.548475 -116.084987 9 6256ft 82kts
22-Oct-20 09:40 33.566307 -116.099377 318 6964ft 79kts
22-Oct-20 09:41 33.584047 -116.116891 317 7646ft 81kts
22-Oct-20 09:42 33.602463 -116.135099 317 8297ft 82kts
22-Oct-20 09:43 33.620764 -116.154074 294 8902ft 82kts
22-Oct-20 09:44 33.608001 -116.175630 221 9461ft 83kts
22-Oct-20 09:45 33.589159 -116.193426 219 9924ft 91kts
22-Oct-20 09:46 33.565761 -116.214586 218 9927ft 111kts
22-Oct-20 09:47 33.540771 -116.236712 217 9908ft 112kts
22-Oct-20 09:48 33.515797 -116.258663 217 9908ft 111kts
22-Oct-20 09:49 33.490773 -116.280601 217 9908ft 111kts
22-Oct-20 09:50 33.465798 -116.302471 217 9908ft 111kts
22-Oct-20 09:51 33.440824 -116.324322 217 9908ft 111kts
22-Oct-20 09:52 33.415774 -116.346222 217 9908ft 111kts
22-Oct-20 09:54 33.390730 -116.368101 217 9908ft 111kts
22-Oct-20 09:55 33.365703 -116.389948 217 9907ft 111kts
22-Oct-20 09:56 33.340692 -116.411763 217 9911ft 111kts
22-Oct-20 09:57 33.315729 -116.433518 217 9923ft 111kts
22-Oct-20 09:58 33.290794 -116.455233 217 9939ft 111kts
22-Oct-20 09:59 33.265863 -116.476978 215 9962ft 110kts
22-Oct-20 10:00 33.241282 -116.498311 215 9990ft 109kts
22-Oct-20 10:01 33.216980 -116.519419 215 9576ft 110kts
22-Oct-20 10:02 33.190911 -116.542103 215 8601ft 119kts
22-Oct-20 10:03 33.165246 -116.564393 215 8033ft 111kts
22-Oct-20 10:04 33.141663 -116.588685 241 7857ft 113kts
22-Oct-20 10:05 33.129119 -116.623154 246 7861ft 113kts
22-Oct-20 10:06 33.117526 -116.658348 246 7863ft 113kts
22-Oct-20 10:07 33.106186 -116.693631 247 7863ft 114kts
22-Oct-20 10:08 33.094940 -116.728893 247 7863ft 114kts
22-Oct-20 10:09 33.083662 -116.764254 247 7863ft 114kts
22-Oct-20 10:10 33.072349 -116.799673 247 7863ft 114kts
22-Oct-20 10:11 33.061112 -116.835111 253 7852ft 115kts
22-Oct-20 10:12 33.075012 -116.868642 307 7345ft 117kts
22-Oct-20 10:12 33.092740 -116.893289 309 6927ft 118kts
22-Oct-20 10:14 33.117944 -116.927584 309 6339ft 117kts
22-Oct-20 10:14 33.135922 -116.952041 309 5921ft 118kts
22-Oct-20 10:15 33.157627 -116.981586 309 5417ft 118kts
22-Oct-20 10:16 33.169501 -117.016465 262 4569ft 115kts
22-Oct-20 10:17 33.164529 -117.053625 257 4120ft 114kts
22-Oct-20 10:18 33.158579 -117.091169 257 3564ft 115kts
22-Oct-20 10:19 33.152640 -117.128371 257 2930ft 111kts
22-Oct-20 10:20 33.146770 -117.164999 257 2281ft 112kts
22-Oct-20 10:21 33.140948 -117.201353 257 1659ft 102kts
22-Oct-20 10:22 33.136268 -117.230428 256 1128ft 76kts
22-Oct-20 10:23 33.132434 -117.254167 256 701ft 69kts
22-Oct-20 10:24 33.129003 -117.275440 257 335ft 44kts
22-Oct-20 10:25 33.127546 -117.279377 79 335ft 12kts
22-Oct-20 10:26 33.127543 -117.276196 168 335ft 2kts

Navigation Log

Ident Type
Flight plan parsing failed, navigation log unavailable